Daytona Beach International Airport
KDAB : now visible

Airfield :











YOU CAN JOIN US ON...

 
LOGIN :

Register | Disclaimer

   EN    FR    IT 

 









Legend :    VFR   Marginal VFR   IFR   Intensive IFR   Very Intensive IFR
Visi :
Ceiling :
>= 8 km
>= 3000ft
5 to 8 km
1000 to 3000 ft
1500m to 5 km
500 to 1000 ft
800 to 1500m
200 to 500 ft
< 800m
< 200 ft
Symbols :   Thunderstorms  Fog  Heavy snow  Heavy precipitations  Wind > 20 kt






- Airport Elevation : 34 ft
- IATA code : DAB


KDAB - Daytona Beach International

CURRENT METAR :
  • 050053Z 22005KT 10SM FEW016 SCT029 BKN080 OVC130 25/24 A3001 RMK AO2 SLP162 T02500244

EXPIRED METARs :
  • 042353Z 22004KT 10SM FEW014 BKN029 BKN130 26/25 A3000 RMK AO2 SLP157 60056 T02560250 10306 20233 53001
  • 042253Z 23004KT 9SM FEW032 BKN080 OVC100 26/24 A2999 RMK AO2 RAE45 TSE45 SLP155 TS MOVD E P0001 T02560239
  • 042153Z 20004KT 6SM -TSRA BR FEW012 SCT025CB OVC120 24/23 A2999 RMK AO2 LTG DSNT E SLP153 OCNL LTGCG E TS E MOV E P0008 T02440233 $

TAF KDAB
Valid from the 05 at 00:00 until the 06 at 00:00 UTC


042332Z 0500/0524 21008KT P6SM VCSH FEW020 SCT025 OVC120
FM050300 21003KT P6SM FEW020 SCT050 BKN250
FM051500 20008KT P6SM VCSH SCT035 SCT080 BKN250
FM051800 22007KT P6SM VCTS SCT030CB BKN120 BKN250
FM052200 23005KT P6SM VCSH SCT040 SCT150 BKN250
KZJX FIR / North America



MET'MAP, your aeronautical weather chart ! - Copyright ORBIFLY December 2007 - Disclaimer

ORBIFLY MET'MAP TEAM :

Programming & Development : Alexandra Zaïnal
Concept & original design : Baudouin d'Aumeries
Assistance for programming : Marc-Olivier Méhu
Technical & hardware support : Manuel Goepfert

Contact : metmap@orbifly.com




SOURCES & CREDITS :

   NOAA       Earth
Advisory